createdAt,value
2022-12-18T00:01:38.081Z,187.50
2022-12-18T00:06:43.210Z,208.70
2022-12-18T00:11:49.587Z,186.77
2022-12-18T00:16:52.258Z,199.93
2022-12-18T00:21:59.373Z,189.55
2022-12-18T00:27:07.881Z,162.83
2022-12-18T00:32:12.915Z,154.90
2022-12-18T00:37:20.083Z,151.97
2022-12-18T00:42:45.978Z,144.70
2022-12-18T00:47:48.741Z,145.67
2022-12-18T00:52:51.954Z,92.70
2022-12-18T01:02:57.894Z,131.40
2022-12-18T01:08:04.187Z,115.90
2022-12-18T01:13:07.108Z,125.17
2022-12-18T01:18:09.843Z,96.43
2022-12-18T01:23:12.940Z,99.17
2022-12-18T01:28:15.816Z,119.40
2022-12-18T01:33:18.486Z,115.50
2022-12-18T01:38:21.154Z,76.47
2022-12-18T01:43:42.677Z,98.37
2022-12-18T01:48:48.842Z,195.40
2022-12-18T01:53:51.610Z,99.87
2022-12-18T01:59:00.094Z,97.43
2022-12-18T02:04:25.905Z,124.70
2022-12-18T02:09:38.337Z,108.80
2022-12-18T02:14:50.253Z,107.50
2022-12-18T02:20:15.722Z,118.20
2022-12-18T02:25:53.513Z,104.00
2022-12-18T02:31:01.203Z,78.73
2022-12-18T02:36:07.214Z,89.10
2022-12-18T02:41:18.368Z,88.50
2022-12-18T02:46:34.068Z,95.47
2022-12-18T02:52:22.961Z,93.13
2022-12-18T02:57:31.542Z,89.30
2022-12-18T03:02:47.805Z,81.03
2022-12-18T03:08:25.388Z,94.70
2022-12-18T03:13:39.209Z,88.93
2022-12-18T03:19:00.127Z,86.03
2022-12-18T03:24:05.822Z,98.17
2022-12-18T03:29:14.442Z,84.43
2022-12-18T03:34:23.288Z,70.20
2022-12-18T03:39:29.601Z,85.07
2022-12-18T03:45:05.347Z,77.13
2022-12-18T03:50:31.201Z,75.05
2022-12-18T03:55:35.103Z,65.50
2022-12-18T04:00:41.378Z,73.23
2022-12-18T04:05:50.530Z,71.23
2022-12-18T04:11:01.106Z,71.43
2022-12-18T04:16:07.777Z,71.63
2022-12-18T04:21:12.109Z,59.13
2022-12-18T04:26:14.832Z,63.30
2022-12-18T04:31:27.419Z,63.37
2022-12-18T04:36:31.763Z,74.60
2022-12-18T04:41:34.740Z,75.90
2022-12-18T04:46:39.437Z,98.23
2022-12-18T04:51:42.312Z,97.30
2022-12-18T04:56:44.868Z,78.03
2022-12-18T05:01:48.116Z,109.03
2022-12-18T05:06:50.985Z,91.53
2022-12-18T05:11:54.887Z,95.67
2022-12-18T05:17:00.858Z,125.07
2022-12-18T05:22:12.974Z,136.10
2022-12-18T05:27:15.570Z,118.10
2022-12-18T05:32:18.061Z,117.57
2022-12-18T05:37:20.556Z,93.73
2022-12-18T05:42:23.253Z,93.13
2022-12-18T05:47:26.259Z,66.43
2022-12-18T05:52:29.022Z,86.85
2022-12-18T05:57:31.632Z,60.77
2022-12-18T06:02:34.531Z,53.43
2022-12-18T06:07:38.022Z,59.22
2022-12-18T06:12:40.730Z,58.25
2022-12-18T06:17:44.629Z,58.37
2022-12-18T06:22:47.446Z,37.38
2022-12-18T06:27:49.992Z,66.17
2022-12-18T06:32:56.796Z,88.67
2022-12-18T06:37:59.583Z,83.27
2022-12-18T06:43:02.824Z,64.28
2022-12-18T06:48:05.540Z,35.10
2022-12-18T06:53:08.486Z,40.63
2022-12-18T06:58:11.333Z,50.60
2022-12-18T07:03:15.514Z,50.75
2022-12-18T07:08:18.085Z,43.88
2022-12-18T07:13:21.154Z,37.40
2022-12-18T07:18:23.786Z,31.17
2022-12-18T07:23:26.678Z,31.35
2022-12-18T07:28:29.569Z,32.13
2022-12-18T07:33:33.912Z,42.97
2022-12-18T07:38:37.277Z,42.13
2022-12-18T07:43:41.913Z,46.00
2022-12-18T07:48:49.748Z,45.10
2022-12-18T07:53:53.079Z,47.63
2022-12-18T07:59:02.577Z,33.60
2022-12-18T08:04:08.271Z,53.90
2022-12-18T08:09:14.470Z,38.22
2022-12-18T08:14:20.053Z,49.90
2022-12-18T08:19:27.849Z,57.50
2022-12-18T08:24:35.903Z,61.00
2022-12-18T08:29:41.584Z,68.77
2022-12-18T08:34:48.153Z,67.38
2022-12-18T08:39:55.124Z,61.73
2022-12-18T08:45:00.512Z,57.20
2022-12-18T08:50:07.711Z,60.00
2022-12-18T08:55:15.322Z,75.95
2022-12-18T09:00:21.705Z,82.73
2022-12-18T09:05:24.727Z,97.57
2022-12-18T09:10:33.144Z,37.60
2022-12-18T09:15:35.703Z,47.13
2022-12-18T09:20:39.434Z,40.37
2022-12-18T09:25:43.780Z,53.80
2022-12-18T09:30:50.037Z,52.30
2022-12-18T09:36:01.426Z,53.83
2022-12-18T09:41:32.956Z,38.95
2022-12-18T09:46:44.322Z,45.13
2022-12-18T09:53:06.464Z,36.40
2022-12-18T10:13:04.931Z,55.85
2022-12-18T10:24:12.127Z,31.58
2022-12-18T10:30:04.357Z,36.60
2022-12-18T10:49:24.852Z,42.42
2022-12-18T10:55:00.956Z,49.37
2022-12-18T11:00:47.002Z,44.43
2022-12-18T11:06:03.080Z,48.20
2022-12-18T11:11:17.371Z,45.33
2022-12-18T11:16:21.360Z,62.30
2022-12-18T11:21:25.733Z,60.60
2022-12-18T11:26:36.945Z,64.57
2022-12-18T11:31:40.143Z,114.70
2022-12-18T11:36:49.556Z,58.28
2022-12-18T11:42:12.018Z,45.43
2022-12-18T11:47:31.126Z,35.47
2022-12-18T11:52:40.836Z,41.93
2022-12-18T11:57:44.813Z,48.30
2022-12-18T12:03:19.642Z,50.53
2022-12-18T12:09:01.832Z,53.43
2022-12-18T12:14:39.740Z,51.13
2022-12-18T12:20:03.060Z,49.00
2022-12-18T12:25:23.069Z,72.00
2022-12-18T12:30:34.042Z,93.67
2022-12-18T12:35:56.132Z,57.77
2022-12-18T12:41:04.147Z,61.88
2022-12-18T12:46:19.438Z,53.50
2022-12-18T12:51:45.195Z,45.67
2022-12-18T12:57:05.843Z,61.60
2022-12-18T13:02:37.091Z,67.90
2022-12-18T13:07:45.585Z,55.53
2022-12-18T13:13:10.476Z,67.30
2022-12-18T13:18:15.310Z,73.90
2022-12-18T13:23:27.531Z,76.83
2022-12-18T13:28:48.494Z,72.07
2022-12-18T13:34:24.985Z,70.10
2022-12-18T13:39:25.806Z,66.47
2022-12-18T13:44:41.643Z,66.57
2022-12-18T13:49:45.383Z,57.10
2022-12-18T13:54:53.871Z,78.63
2022-12-18T13:59:58.020Z,75.30
2022-12-18T14:05:00.614Z,72.00
2022-12-18T14:10:33.591Z,55.38
2022-12-18T14:15:26.555Z,55.28
2022-12-18T14:20:31.252Z,73.90
2022-12-18T14:25:34.621Z,75.50
2022-12-18T14:30:42.379Z,73.10
2022-12-18T14:35:58.181Z,79.87
2022-12-18T14:41:03.281Z,70.13
2022-12-18T14:46:08.709Z,76.27
2022-12-18T14:51:11.522Z,97.07
2022-12-18T14:56:24.050Z,78.47
2022-12-18T15:01:29.573Z,82.83
2022-12-18T15:06:37.287Z,83.17
2022-12-18T15:11:42.913Z,85.67
2022-12-18T15:16:46.283Z,85.43
2022-12-18T15:21:49.337Z,99.03
2022-12-18T15:26:52.288Z,89.85
2022-12-18T15:32:05.705Z,97.37
2022-12-18T15:37:09.202Z,105.50
2022-12-18T15:47:34.245Z,97.27
2022-12-18T15:52:50.874Z,101.57
2022-12-18T15:57:53.417Z,113.80
2022-12-18T16:02:56.046Z,123.73
2022-12-18T16:08:09.213Z,116.90
2022-12-18T16:13:22.807Z,120.10
2022-12-18T16:18:25.371Z,98.73
2022-12-18T16:23:28.259Z,89.27
2022-12-18T16:28:31.210Z,105.05
2022-12-18T16:33:36.716Z,117.67
2022-12-18T16:38:39.343Z,121.43
2022-12-18T16:43:42.299Z,89.17
2022-12-18T16:48:44.962Z,128.40
2022-12-18T16:53:47.454Z,141.53
2022-12-18T16:58:57.172Z,129.73
2022-12-18T17:04:04.926Z,134.03
2022-12-18T17:09:09.761Z,127.43
2022-12-18T17:14:23.496Z,135.20
2022-12-18T17:19:27.209Z,143.40
2022-12-18T17:24:34.564Z,134.57
2022-12-18T17:29:41.327Z,150.03
2022-12-18T17:34:47.751Z,132.80
2022-12-18T17:39:50.268Z,103.40
2022-12-18T17:44:52.840Z,101.17
2022-12-18T17:49:55.322Z,104.80
2022-12-18T17:54:58.378Z,141.20
2022-12-18T18:00:00.927Z,104.90
2022-12-18T18:05:04.901Z,146.33
2022-12-18T18:10:10.554Z,145.07
2022-12-18T18:15:13.475Z,136.43
2022-12-18T18:20:22.369Z,141.00
2022-12-18T18:25:26.971Z,137.20
2022-12-18T18:30:30.657Z,136.50
2022-12-18T18:41:03.270Z,138.47
2022-12-18T18:46:06.287Z,140.17
2022-12-18T18:51:12.802Z,138.18
2022-12-18T19:01:46.015Z,139.90
2022-12-18T19:06:49.559Z,154.73
2022-12-18T19:17:13.749Z,154.03
2022-12-18T19:22:16.558Z,143.93
2022-12-18T19:27:19.185Z,144.50
2022-12-18T19:32:22.675Z,143.43
2022-12-18T19:37:26.258Z,148.17
2022-12-18T19:42:35.224Z,138.97
2022-12-18T19:47:38.325Z,144.43
2022-12-18T19:52:41.174Z,136.60
2022-12-18T19:57:44.008Z,134.93
2022-12-18T20:02:48.015Z,143.37
2022-12-18T20:07:50.628Z,103.40
2022-12-18T20:12:53.432Z,108.15
2022-12-18T20:17:57.345Z,129.87
2022-12-18T20:23:00.292Z,142.18
2022-12-18T20:28:02.852Z,134.55
2022-12-18T20:33:05.467Z,103.80
2022-12-18T20:38:09.612Z,139.50
2022-12-18T20:43:17.347Z,135.93
2022-12-18T20:48:25.044Z,128.93
2022-12-18T20:53:54.946Z,147.60
2022-12-18T20:59:02.794Z,136.43
2022-12-18T21:21:46.264Z,138.30
2022-12-18T21:27:58.129Z,147.17
2022-12-18T21:33:08.536Z,148.13
2022-12-18T21:38:11.272Z,147.63
2022-12-18T21:43:34.045Z,148.80
2022-12-18T21:54:33.519Z,162.80
2022-12-18T22:00:30.929Z,173.07
2022-12-18T22:06:09.840Z,166.77
2022-12-18T22:12:08.261Z,176.60
2022-12-18T22:18:37.610Z,185.73
2022-12-18T22:30:25.190Z,200.87
2022-12-18T22:35:28.158Z,150.95
2022-12-18T22:40:30.634Z,201.85
2022-12-18T22:45:36.291Z,203.45
2022-12-18T22:50:41.100Z,205.83
2022-12-18T22:55:44.132Z,168.30
2022-12-18T23:00:46.573Z,208.25
2022-12-18T23:05:49.064Z,143.63
2022-12-18T23:10:53.549Z,201.67
2022-12-18T23:15:56.191Z,211.10
2022-12-18T23:20:58.652Z,189.27
2022-12-18T23:31:14.685Z,201.20
2022-12-18T23:36:19.080Z,204.30
2022-12-18T23:41:23.270Z,209.65
2022-12-18T23:46:27.469Z,198.83
2022-12-18T23:51:32.563Z,198.07
2022-12-18T23:56:38.692Z,198.03
